Marlborough, NH (03455)

4:25 PM EST on March 01, 2015 (GMT -0500)
APRSWXNET Marlborough NH US | Change Station
CLOSE
Current Station
Personal Weather Station
Location: Marlborough, NH
Elevation: 754 ft
Nearby Weather Stations

Elev 754 ft 42.91 °N, 72.22 °W | Updated 22 minutes ago

Overcast
Overcast
24 °F
Feels Like 24 °F
N
0
Wind Variable Wind from SE
Gusts 3.0 mph

Today
High -- | Low -- °F
--% Chance of Precip.
Yesterday
High -- | Low -- °F
Precip. -- in
6:25 AM 5:37 PM
Waxing Gibbous, 87% visible
Pressure 30.35 in
Visibility 5.0 miles
Clouds Mostly Cloudy 2300 ft
Mostly Cloudy 3000 ft
Overcast 3900 ft
Windchill 24 °F
Dew Point 18 °F
Humidity 78%
Rainfall 0.00 in
Snow Depth Not available.
UV 0 out of 12
Pollen .30 out of 12
Air Quality Not available.
Flu Activity Not available.
METAR KEEN 012115Z AUTO 19008KT 5SM BKN023 BKN030 OVC039 M04/M08 A3035 RMK AO1

More Conditions Fewer Conditions

Pressure 30.35 in
Visibility 5.0 miles
Clouds Mostly Cloudy 2300 ft
Mostly Cloudy 3000 ft
Overcast 3900 ft
Windchill 24 °F
Dew Point 18 °F
Humidity 78%
Rainfall 0.00 in
Snow Depth Not available.
UV 0 out of 12
Pollen .30 out of 12
Air Quality Not available.
Flu Activity Not available.
METAR KEEN 012115Z AUTO 19008KT 5SM BKN023 BKN030 OVC039 M04/M08 A3035 RMK AO1

More Conditions Fewer Conditions

10-Day Weather Forecast

Almanac

Astronomy

Mar. 01, 2015 Rise Set
Actual Time
Civil Twilight
Nautical Twilight
Astronomical Twilight
Moon
Length of Visible Light
Length of Day
Tomorrow will be .
, % of the Moon is Illuminated

Today's Extremes

State Highs State Lows

Community

WunderPhotos

Upload Photos

1,801,563 photos uploaded!

WunderBlogs® & News

Nearby

Air Quality

  Air Quality AQ Index Pollutant
Not available.

Snow Depth

Station Depth Elevation

Earthquake Activity

City Distance Mag. Time & Date
Minimum magnitude displayed is 2.5.

Coastal Water Temperatures

Place Temperature

Nearby Weather Stations